createdAt,value
2023-03-24T00:01:24.527Z,10.19
2023-03-24T00:03:53.918Z,10.23
2023-03-24T00:06:23.615Z,10.22
2023-03-24T00:08:53.260Z,10.23
2023-03-24T00:11:22.058Z,10.26
2023-03-24T00:13:50.973Z,10.29
2023-03-24T00:16:22.166Z,10.25
2023-03-24T00:18:54.224Z,10.29
2023-03-24T00:21:25.522Z,10.26
2023-03-24T00:23:58.274Z,10.26
2023-03-24T00:26:27.244Z,10.29
2023-03-24T00:28:55.790Z,10.30
2023-03-24T00:31:24.697Z,10.30
2023-03-24T00:33:53.951Z,10.33
2023-03-24T00:36:25.962Z,10.34
2023-03-24T00:38:54.902Z,10.34
2023-03-24T00:41:25.067Z,10.37
2023-03-24T00:43:55.920Z,10.36
2023-03-24T00:46:36.578Z,10.36
2023-03-24T00:49:21.232Z,10.36
2023-03-24T00:51:51.082Z,10.34
2023-03-24T00:54:22.140Z,10.33
2023-03-24T00:56:56.026Z,10.29
2023-03-24T00:59:30.100Z,10.27
2023-03-24T01:01:58.462Z,10.29
2023-03-24T01:04:27.046Z,10.32
2023-03-24T01:06:58.392Z,10.32
2023-03-24T01:09:26.405Z,10.29
2023-03-24T01:11:56.210Z,10.30
2023-03-24T01:14:24.405Z,10.30
2023-03-24T01:16:53.144Z,10.27
2023-03-24T01:19:27.748Z,10.29
2023-03-24T01:21:59.643Z,10.30
2023-03-24T01:24:28.312Z,10.32
2023-03-24T01:26:56.382Z,10.34
2023-03-24T01:29:24.598Z,10.34
2023-03-24T01:31:52.744Z,10.37
2023-03-24T01:34:21.210Z,10.39
2023-03-24T01:36:49.268Z,10.39
2023-03-24T01:39:18.788Z,10.40
2023-03-24T01:41:46.905Z,10.39
2023-03-24T01:44:30.046Z,10.40
2023-03-24T01:46:58.745Z,10.37
2023-03-24T01:49:31.529Z,10.36
2023-03-24T01:52:02.147Z,10.37
2023-03-24T01:54:36.006Z,10.39
2023-03-24T01:57:06.789Z,10.43
2023-03-24T01:59:40.489Z,10.47
2023-03-24T02:02:09.919Z,10.53
2023-03-24T02:04:42.226Z,10.56
2023-03-24T02:07:12.579Z,10.63
2023-03-24T02:09:42.003Z,10.67
2023-03-24T02:12:10.508Z,10.76
2023-03-24T02:14:38.650Z,10.83
2023-03-24T02:17:30.424Z,10.88
2023-03-24T02:20:23.129Z,10.95
2023-03-24T02:23:10.261Z,11.04
2023-03-24T02:25:57.774Z,11.10
2023-03-24T02:28:36.684Z,11.14
2023-03-24T02:31:24.406Z,11.14
2023-03-24T02:34:18.109Z,11.14
2023-03-24T02:37:00.302Z,11.12
2023-03-24T02:39:39.651Z,11.14
2023-03-24T02:42:13.012Z,11.08
2023-03-24T02:44:45.458Z,11.01
2023-03-24T02:47:19.217Z,10.95
2023-03-24T02:49:52.711Z,10.89
2023-03-24T02:52:24.382Z,10.88
2023-03-24T02:54:58.888Z,10.80
2023-03-24T02:57:32.981Z,10.76
2023-03-24T03:00:09.202Z,10.73
2023-03-24T03:02:41.239Z,10.66
2023-03-24T03:05:14.309Z,10.63
2023-03-24T03:07:46.939Z,10.60
2023-03-24T03:10:19.287Z,10.60
2023-03-24T03:12:49.394Z,10.55
2023-03-24T03:15:22.549Z,10.53
2023-03-24T03:17:54.104Z,10.50
2023-03-24T03:20:24.471Z,10.47
2023-03-24T03:22:56.792Z,10.46
2023-03-24T03:25:29.484Z,10.47
2023-03-24T03:27:59.141Z,10.49
2023-03-24T03:30:30.336Z,10.46
2023-03-24T03:33:03.730Z,10.46
2023-03-24T03:35:36.591Z,10.45
2023-03-24T03:38:11.969Z,10.45
2023-03-24T03:40:44.104Z,10.45
2023-03-24T03:43:12.814Z,10.42
2023-03-24T03:45:40.965Z,10.42
2023-03-24T03:48:09.397Z,10.45
2023-03-24T03:50:40.083Z,10.45
2023-03-24T03:53:08.827Z,10.46
2023-03-24T03:55:38.299Z,10.49
2023-03-24T03:58:08.234Z,10.52
2023-03-24T04:00:36.867Z,10.53
2023-03-24T04:03:26.184Z,10.55
2023-03-24T04:05:57.966Z,10.56
2023-03-24T04:08:35.523Z,10.56
2023-03-24T04:11:19.229Z,10.59
2023-03-24T04:13:56.018Z,10.61
2023-03-24T04:16:30.740Z,10.63
2023-03-24T04:19:09.297Z,10.64
2023-03-24T04:21:51.824Z,10.66
2023-03-24T04:24:27.123Z,10.67
2023-03-24T04:27:01.135Z,10.67
2023-03-24T04:29:37.156Z,10.68
2023-03-24T04:32:11.325Z,10.74
2023-03-24T04:34:45.157Z,10.74
2023-03-24T04:37:15.610Z,10.77
2023-03-24T04:39:46.938Z,10.77
2023-03-24T04:42:20.030Z,10.78
2023-03-24T04:44:51.591Z,10.78
2023-03-24T04:47:25.765Z,10.81
2023-03-24T04:50:02.530Z,10.84
2023-03-24T04:52:31.405Z,10.85
2023-03-24T04:54:59.736Z,10.87
2023-03-24T04:57:28.347Z,10.88
2023-03-24T04:59:57.857Z,10.91
2023-03-24T05:02:27.321Z,10.91
2023-03-24T05:04:55.480Z,10.95
2023-03-24T05:07:23.465Z,10.95
2023-03-24T05:09:52.303Z,10.97
2023-03-24T05:12:20.834Z,10.98
2023-03-24T05:14:48.854Z,10.98
2023-03-24T05:17:18.464Z,10.99
2023-03-24T05:19:47.035Z,11.01
2023-03-24T05:22:15.015Z,11.05
2023-03-24T05:24:43.081Z,11.05
2023-03-24T05:27:11.147Z,11.10
2023-03-24T05:29:39.535Z,11.12
2023-03-24T05:32:07.906Z,11.12
2023-03-24T05:34:37.906Z,11.18
2023-03-24T05:37:12.005Z,11.21
2023-03-24T05:39:40.388Z,11.25
2023-03-24T05:42:08.650Z,11.25
2023-03-24T05:44:36.782Z,11.32
2023-03-24T05:47:05.454Z,11.36
2023-03-24T05:49:33.764Z,11.46
2023-03-24T05:52:03.868Z,11.50
2023-03-24T05:54:34.160Z,11.59
2023-03-24T05:57:03.203Z,11.69
2023-03-24T05:59:31.835Z,11.73
2023-03-24T06:01:59.862Z,11.87
2023-03-24T06:04:30.069Z,12.04
2023-03-24T06:06:58.975Z,12.15
2023-03-24T06:09:29.647Z,12.25
2023-03-24T06:11:57.976Z,12.35
2023-03-24T06:14:26.727Z,12.55
2023-03-24T06:16:55.121Z,12.52
2023-03-24T06:19:24.913Z,12.55
2023-03-24T06:21:56.342Z,12.58
2023-03-24T06:24:24.844Z,12.61
2023-03-24T06:27:02.396Z,12.66
2023-03-24T06:29:30.802Z,12.69
2023-03-24T06:31:59.200Z,12.66
2023-03-24T06:34:29.268Z,12.76
2023-03-24T06:36:58.320Z,12.75
2023-03-24T06:39:27.008Z,12.77
2023-03-24T06:41:56.605Z,12.82
2023-03-24T06:44:24.800Z,12.86
2023-03-24T06:46:53.273Z,12.86
2023-03-24T06:49:21.931Z,12.89
2023-03-24T06:51:50.032Z,12.93
2023-03-24T06:54:18.618Z,12.94
2023-03-24T06:56:48.347Z,12.96
2023-03-24T06:59:18.234Z,12.72
2023-03-24T07:01:48.182Z,12.49
2023-03-24T07:04:16.151Z,12.38
2023-03-24T07:07:05.114Z,12.32
2023-03-24T07:09:36.432Z,12.28
2023-03-24T07:12:06.112Z,12.29
2023-03-24T07:14:36.030Z,12.32
2023-03-24T07:17:04.102Z,12.36
2023-03-24T07:19:33.845Z,12.46
2023-03-24T07:22:04.295Z,12.51
2023-03-24T07:24:32.314Z,12.51
2023-03-24T07:27:00.521Z,12.51
2023-03-24T07:29:30.902Z,12.53
2023-03-24T07:32:01.406Z,12.53
2023-03-24T07:34:29.913Z,12.53
2023-03-24T07:36:59.138Z,12.52
2023-03-24T07:39:29.053Z,12.52
2023-03-24T07:41:57.639Z,12.48
2023-03-24T07:44:26.834Z,12.46
2023-03-24T07:46:55.405Z,12.44
2023-03-24T07:49:25.106Z,12.44
2023-03-24T07:51:54.803Z,12.38
2023-03-24T07:54:22.806Z,12.33
2023-03-24T07:56:50.962Z,12.33
2023-03-24T07:59:20.798Z,12.32
2023-03-24T08:01:52.650Z,12.33
2023-03-24T08:04:28.832Z,12.32
2023-03-24T08:06:59.021Z,12.33
2023-03-24T08:09:27.108Z,12.31
2023-03-24T08:12:00.354Z,12.28
2023-03-24T08:14:32.624Z,12.29
2023-03-24T08:17:00.677Z,12.28
2023-03-24T08:19:30.858Z,12.28
2023-03-24T08:21:58.860Z,12.31
2023-03-24T08:24:27.184Z,12.32
2023-03-24T08:27:02.744Z,12.31
2023-03-24T08:29:30.786Z,12.31
2023-03-24T08:31:58.976Z,12.32
2023-03-24T08:34:27.303Z,12.35
2023-03-24T08:36:58.049Z,12.36
2023-03-24T08:39:26.092Z,12.41
2023-03-24T08:41:55.059Z,12.52
2023-03-24T08:44:27.443Z,12.66
2023-03-24T08:46:55.347Z,12.77
2023-03-24T08:49:23.739Z,12.89
2023-03-24T08:51:52.058Z,12.96
2023-03-24T08:54:24.900Z,13.01
2023-03-24T08:56:54.341Z,13.08
2023-03-24T08:59:22.562Z,13.16
2023-03-24T09:01:50.822Z,13.20
2023-03-24T09:04:19.697Z,13.20
2023-03-24T09:06:49.779Z,13.23
2023-03-24T09:09:19.949Z,13.24
2023-03-24T09:11:52.220Z,13.26
2023-03-24T09:14:22.329Z,13.34
2023-03-24T09:16:52.399Z,13.41
2023-03-24T09:19:20.474Z,13.58
2023-03-24T09:21:49.828Z,13.79
2023-03-24T09:24:18.065Z,13.96
2023-03-24T09:26:46.625Z,14.17
2023-03-24T09:29:16.043Z,14.36
2023-03-24T09:31:44.036Z,14.48
2023-03-24T09:34:12.079Z,14.57
2023-03-24T09:36:40.320Z,14.64
2023-03-24T09:39:10.163Z,14.77
2023-03-24T09:41:38.290Z,14.84
2023-03-24T09:44:11.860Z,14.96
2023-03-24T09:46:47.027Z,14.99
2023-03-24T09:49:20.557Z,14.99
2023-03-24T09:51:50.166Z,14.96
2023-03-24T09:54:20.637Z,14.89
2023-03-24T09:56:51.554Z,14.84
2023-03-24T09:59:23.449Z,14.69
2023-03-24T10:01:53.075Z,14.65
2023-03-24T10:04:23.777Z,14.61
2023-03-24T10:06:56.093Z,14.54
2023-03-24T10:09:27.289Z,14.45
2023-03-24T10:12:10.766Z,14.44
2023-03-24T10:14:52.017Z,14.51
2023-03-24T10:17:26.916Z,14.65
2023-03-24T10:20:00.460Z,14.82
2023-03-24T10:22:32.264Z,14.98
2023-03-24T10:25:09.495Z,15.16
2023-03-24T10:27:41.697Z,15.27
2023-03-24T10:30:15.927Z,15.35
2023-03-24T10:32:46.121Z,15.37
2023-03-24T10:35:19.894Z,15.39
2023-03-24T10:37:49.102Z,15.33
2023-03-24T10:40:19.334Z,15.32
2023-03-24T10:42:50.000Z,15.30
2023-03-24T10:45:37.945Z,15.30
2023-03-24T10:48:09.551Z,15.32
2023-03-24T10:50:45.463Z,15.39
2023-03-24T10:53:19.394Z,15.43
2023-03-24T10:55:50.934Z,15.54
2023-03-24T10:58:27.454Z,15.57
2023-03-24T11:00:58.143Z,15.57
2023-03-24T11:03:30.230Z,15.51
2023-03-24T11:06:04.552Z,15.58
2023-03-24T11:08:37.028Z,15.88
2023-03-24T11:11:15.445Z,16.35
2023-03-24T11:13:55.375Z,17.02
2023-03-24T11:16:28.783Z,17.63
2023-03-24T11:19:01.095Z,17.97
2023-03-24T11:21:30.356Z,18.04
2023-03-24T11:24:02.094Z,17.97
2023-03-24T11:26:33.236Z,17.83
2023-03-24T11:29:04.920Z,17.96
2023-03-24T11:31:38.499Z,17.91
2023-03-24T11:34:12.480Z,17.72
2023-03-24T11:36:45.417Z,17.84
2023-03-24T11:39:18.965Z,18.08
2023-03-24T11:41:54.264Z,18.03
2023-03-24T11:44:24.049Z,17.83
2023-03-24T11:46:54.827Z,17.69
2023-03-24T11:49:28.111Z,17.66
2023-03-24T11:51:57.045Z,17.72
2023-03-24T11:54:29.991Z,17.79
2023-03-24T11:57:01.776Z,17.76
2023-03-24T11:59:35.849Z,17.60
2023-03-24T12:02:14.606Z,17.50
2023-03-24T12:04:52.273Z,17.43
2023-03-24T12:07:40.638Z,17.28
2023-03-24T12:10:18.695Z,17.16
2023-03-24T12:12:53.144Z,17.11
2023-03-24T12:15:28.992Z,17.05
2023-03-24T12:18:14.170Z,16.97
2023-03-24T12:20:45.805Z,16.94
2023-03-24T12:23:18.499Z,16.88
2023-03-24T12:26:08.335Z,16.74
2023-03-24T12:28:51.652Z,16.55
2023-03-24T12:31:34.769Z,16.33
2023-03-24T12:34:14.389Z,16.14
2023-03-24T12:36:48.796Z,16.06
2023-03-24T12:39:22.017Z,16.05
2023-03-24T12:41:58.614Z,16.06
2023-03-24T12:45:06.479Z,16.06
2023-03-24T12:48:06.971Z,16.02
2023-03-24T12:50:44.437Z,16.02
2023-03-24T12:53:24.503Z,15.98
2023-03-24T12:55:55.752Z,15.91
2023-03-24T12:58:28.284Z,15.82
2023-03-24T13:01:01.543Z,15.73
2023-03-24T13:03:33.102Z,15.60
2023-03-24T13:06:17.936Z,15.51
2023-03-24T13:08:57.041Z,15.47
2023-03-24T13:11:33.237Z,15.42
2023-03-24T13:14:04.709Z,15.33
2023-03-24T13:16:36.902Z,15.33
2023-03-24T13:19:05.376Z,15.33
2023-03-24T13:21:35.409Z,15.37
2023-03-24T13:24:09.588Z,15.46
2023-03-24T13:26:40.769Z,15.51
2023-03-24T13:29:18.668Z,15.54
2023-03-24T13:31:52.206Z,15.51
2023-03-24T13:34:27.307Z,15.53
2023-03-24T13:37:00.295Z,15.51
2023-03-24T13:39:30.703Z,15.42
2023-03-24T13:41:59.783Z,15.30
2023-03-24T13:44:31.542Z,15.20
2023-03-24T13:47:16.231Z,15.07
2023-03-24T13:49:46.780Z,15.03
2023-03-24T13:52:26.962Z,14.98
2023-03-24T13:54:58.749Z,14.96
2023-03-24T13:57:27.842Z,14.95
2023-03-24T14:00:08.637Z,14.98
2023-03-24T14:02:49.808Z,15.00
2023-03-24T14:05:32.892Z,15.05
2023-03-24T14:08:17.900Z,15.07
2023-03-24T14:10:49.452Z,15.07
2023-03-24T14:13:42.739Z,15.09
2023-03-24T14:16:45.250Z,15.15
2023-03-24T14:19:22.773Z,15.20
2023-03-24T14:22:00.341Z,15.18
2023-03-24T14:24:31.615Z,15.18
2023-03-24T14:27:09.481Z,15.18
2023-03-24T14:29:41.242Z,15.25
2023-03-24T14:32:20.177Z,15.35
2023-03-24T14:34:55.010Z,15.37
2023-03-24T14:37:23.063Z,15.37
2023-03-24T14:39:51.973Z,15.32
2023-03-24T14:42:56.274Z,15.36
2023-03-24T14:45:53.663Z,15.43
2023-03-24T14:48:28.433Z,15.47
2023-03-24T14:51:01.970Z,15.47
2023-03-24T14:53:30.788Z,15.44
2023-03-24T14:55:59.325Z,15.46
2023-03-24T14:58:36.344Z,15.50
2023-03-24T15:01:08.117Z,15.50
2023-03-24T15:03:42.838Z,15.49
2023-03-24T15:06:14.624Z,15.47
2023-03-24T15:08:46.966Z,15.42
2023-03-24T15:11:14.912Z,15.42
2023-03-24T15:13:45.445Z,15.36
2023-03-24T15:16:24.982Z,15.32
2023-03-24T15:21:28.749Z,15.29
2023-03-24T15:23:57.580Z,15.35
2023-03-24T15:26:27.224Z,15.39
2023-03-24T15:28:58.353Z,15.37
2023-03-24T15:31:30.368Z,15.33
2023-03-24T15:34:23.895Z,15.33
2023-03-24T15:36:55.116Z,15.29
2023-03-24T15:39:27.461Z,15.23
2023-03-24T15:41:56.954Z,15.20
2023-03-24T15:44:29.173Z,15.16
2023-03-24T15:46:59.266Z,15.18
2023-03-24T15:49:29.406Z,15.20
2023-03-24T15:51:59.913Z,15.15
2023-03-24T15:54:30.631Z,15.12
2023-03-24T15:57:21.062Z,15.07
2023-03-24T15:59:52.650Z,14.98
2023-03-24T16:02:29.395Z,14.91
2023-03-24T16:05:10.810Z,14.79
2023-03-24T16:07:40.793Z,14.69
2023-03-24T16:10:27.643Z,14.58
2023-03-24T16:12:56.157Z,14.53
2023-03-24T16:15:25.745Z,14.47
2023-03-24T16:17:54.120Z,14.42
2023-03-24T16:20:23.677Z,14.34
2023-03-24T16:22:52.283Z,14.30
2023-03-24T16:25:20.874Z,14.24
2023-03-24T16:27:50.383Z,14.23
2023-03-24T16:30:21.207Z,14.20
2023-03-24T16:32:51.081Z,14.19
2023-03-24T16:35:19.251Z,14.16
2023-03-24T16:37:48.275Z,14.16
2023-03-24T16:40:23.356Z,14.06
2023-03-24T16:42:52.897Z,13.95
2023-03-24T16:45:21.380Z,13.89
2023-03-24T16:47:50.851Z,13.76
2023-03-24T16:50:26.058Z,13.66
2023-03-24T16:52:54.416Z,13.57
2023-03-24T16:55:22.794Z,13.49
2023-03-24T16:57:52.039Z,13.47
2023-03-24T17:00:22.471Z,13.41
2023-03-24T17:02:53.922Z,13.37
2023-03-24T17:05:24.736Z,13.31
2023-03-24T17:07:52.905Z,13.24
2023-03-24T17:10:23.633Z,13.14
2023-03-24T17:12:52.721Z,13.01
2023-03-24T17:15:23.667Z,12.89
2023-03-24T17:17:53.410Z,12.77
2023-03-24T17:20:23.337Z,12.69
2023-03-24T17:22:53.408Z,12.58
2023-03-24T17:25:24.665Z,12.46
2023-03-24T17:27:52.765Z,12.36
2023-03-24T17:30:22.568Z,12.25
2023-03-24T17:32:51.316Z,12.15
2023-03-24T17:35:23.445Z,12.08
2023-03-24T17:37:52.765Z,12.01
2023-03-24T17:40:21.825Z,11.91
2023-03-24T17:42:51.029Z,11.82
2023-03-24T17:45:20.774Z,11.74
2023-03-24T17:47:49.064Z,11.73
2023-03-24T17:50:20.718Z,11.74
2023-03-24T17:52:51.346Z,11.74
2023-03-24T17:55:19.875Z,11.79
2023-03-24T17:57:48.133Z,11.82
2023-03-24T18:00:17.476Z,11.83
2023-03-24T18:02:46.069Z,11.82
2023-03-24T18:05:16.128Z,11.80
2023-03-24T18:07:46.949Z,11.71
2023-03-24T18:10:16.755Z,11.70
2023-03-24T18:12:45.601Z,11.70
2023-03-24T18:15:15.027Z,11.64
2023-03-24T18:17:43.189Z,11.67
2023-03-24T18:20:14.738Z,11.67
2023-03-24T18:22:43.335Z,11.60
2023-03-24T18:25:14.517Z,11.60
2023-03-24T18:27:44.029Z,11.57
2023-03-24T18:30:14.217Z,11.60
2023-03-24T18:32:43.073Z,11.59
2023-03-24T18:35:16.254Z,11.60
2023-03-24T18:37:45.118Z,11.62
2023-03-24T18:40:15.809Z,11.56
2023-03-24T18:42:45.288Z,11.53
2023-03-24T18:45:17.499Z,11.50
2023-03-24T18:47:46.610Z,11.47
2023-03-24T18:50:16.020Z,11.47
2023-03-24T18:52:44.085Z,11.39
2023-03-24T18:55:12.711Z,11.35
2023-03-24T18:57:41.133Z,11.28
2023-03-24T19:00:13.107Z,11.22
2023-03-24T19:02:41.637Z,11.18
2023-03-24T19:05:10.796Z,11.14
2023-03-24T19:07:38.797Z,11.05
2023-03-24T19:10:07.853Z,11.07
2023-03-24T19:12:36.017Z,11.02
2023-03-24T19:15:06.283Z,10.89
2023-03-24T19:17:37.081Z,10.81
2023-03-24T19:20:08.817Z,10.68
2023-03-24T19:22:42.177Z,10.61
2023-03-24T19:25:10.810Z,10.53
2023-03-24T19:27:38.827Z,10.39
2023-03-24T19:30:08.567Z,10.32
2023-03-24T19:32:38.387Z,10.25
2023-03-24T19:35:10.344Z,10.19
2023-03-24T19:37:38.474Z,10.10
2023-03-24T19:40:10.922Z,10.06
2023-03-24T19:42:41.734Z,10.01
2023-03-24T19:45:11.268Z,10.02
2023-03-24T19:47:40.854Z,9.95
2023-03-24T19:50:09.743Z,9.92
2023-03-24T19:52:39.477Z,9.91
2023-03-24T19:55:09.185Z,9.97
2023-03-24T19:57:37.742Z,10.01
2023-03-24T20:00:09.524Z,10.02
2023-03-24T20:02:41.561Z,10.01
2023-03-24T20:05:12.041Z,9.91
2023-03-24T20:07:40.523Z,9.85
2023-03-24T20:10:10.265Z,9.85
2023-03-24T20:12:38.642Z,9.82
2023-03-24T20:15:07.767Z,9.79
2023-03-24T20:17:37.603Z,9.73
2023-03-24T20:20:08.314Z,9.71
2023-03-24T20:22:41.397Z,9.64
2023-03-24T20:25:10.794Z,9.54
2023-03-24T20:27:39.226Z,9.52
2023-03-24T20:30:09.576Z,9.50
2023-03-24T20:32:38.037Z,9.43
2023-03-24T20:35:06.914Z,9.37
2023-03-24T20:37:35.827Z,9.37
2023-03-24T20:40:08.225Z,9.31
2023-03-24T20:42:36.407Z,9.27
2023-03-24T20:45:06.307Z,9.24
2023-03-24T20:47:34.539Z,9.24
2023-03-24T20:50:02.872Z,9.24
2023-03-24T20:52:32.643Z,9.20
2023-03-24T20:55:05.525Z,9.23
2023-03-24T20:57:36.128Z,9.22
2023-03-24T21:00:10.069Z,9.18
2023-03-24T21:02:38.483Z,9.19
2023-03-24T21:05:07.479Z,9.16
2023-03-24T21:07:37.015Z,9.15
2023-03-24T21:10:06.713Z,9.19
2023-03-24T21:12:36.951Z,9.26
2023-03-24T21:15:22.930Z,9.33
2023-03-24T21:17:51.312Z,9.39
2023-03-24T21:20:21.179Z,9.41
2023-03-24T21:22:55.227Z,9.46
2023-03-24T21:25:24.596Z,9.50
2023-03-24T21:27:54.263Z,9.50
2023-03-24T21:30:23.905Z,9.51
2023-03-24T21:32:54.215Z,9.52
2023-03-24T21:35:24.983Z,9.51
2023-03-24T21:37:54.025Z,9.48
2023-03-24T21:40:24.218Z,9.44
2023-03-24T21:42:54.297Z,9.40
2023-03-24T21:45:24.163Z,9.39
2023-03-24T21:47:55.346Z,9.34
2023-03-24T21:50:24.094Z,9.31
2023-03-24T21:52:53.672Z,9.29
2023-03-24T21:55:24.964Z,9.24
2023-03-24T21:57:54.508Z,9.22
2023-03-24T22:00:26.411Z,9.19
2023-03-24T22:02:58.215Z,9.22
2023-03-24T22:05:27.779Z,9.22
2023-03-24T22:07:58.009Z,9.22
2023-03-24T22:10:30.221Z,9.19
2023-03-24T22:13:00.170Z,9.15
2023-03-24T22:15:29.443Z,9.12
2023-03-24T22:18:00.421Z,9.08
2023-03-24T22:20:28.811Z,9.03
2023-03-24T22:22:57.169Z,8.99
2023-03-24T22:25:26.509Z,8.96
2023-03-24T22:27:56.091Z,8.93
2023-03-24T22:30:25.778Z,8.93
2023-03-24T22:32:53.918Z,8.99
2023-03-24T22:35:25.156Z,9.03
2023-03-24T22:37:53.203Z,9.05
2023-03-24T22:40:21.246Z,9.02
2023-03-24T22:42:49.776Z,9.00
2023-03-24T22:45:18.199Z,8.98
2023-03-24T22:47:49.395Z,8.92
2023-03-24T22:50:18.337Z,8.92
2023-03-24T22:52:46.492Z,8.96
2023-03-24T22:55:14.590Z,8.93
2023-03-24T22:57:44.180Z,8.92
2023-03-24T23:00:13.671Z,8.92
2023-03-24T23:02:41.996Z,8.90
2023-03-24T23:05:11.662Z,8.86
2023-03-24T23:07:39.972Z,8.85
2023-03-24T23:10:10.020Z,8.85
2023-03-24T23:12:38.415Z,8.78
2023-03-24T23:15:08.824Z,8.76
2023-03-24T23:17:37.178Z,8.81
2023-03-24T23:20:10.196Z,8.83
2023-03-24T23:22:39.981Z,8.83
2023-03-24T23:25:10.355Z,8.81
2023-03-24T23:27:39.684Z,8.79
2023-03-24T23:30:10.905Z,8.73
2023-03-24T23:32:41.082Z,8.69
2023-03-24T23:35:10.678Z,8.71
2023-03-24T23:37:40.474Z,8.67
2023-03-24T23:40:15.132Z,8.67
2023-03-24T23:42:44.860Z,8.64
2023-03-24T23:45:15.268Z,8.60
2023-03-24T23:47:44.363Z,8.60
2023-03-24T23:50:13.249Z,8.60
2023-03-24T23:52:43.962Z,8.55
2023-03-24T23:55:12.978Z,8.55
2023-03-24T23:57:42.437Z,8.52
